createdAt,value
2023-05-15T00:00:29.826Z,226.64
2023-05-15T00:01:29.827Z,227.03
2023-05-15T00:02:29.900Z,219.60
2023-05-15T00:03:29.925Z,224.32
2023-05-15T00:04:29.874Z,223.04
2023-05-15T00:05:29.834Z,223.76
2023-05-15T00:06:29.866Z,225.05
2023-05-15T00:07:29.867Z,228.88
2023-05-15T00:08:29.916Z,226.48
2023-05-15T00:09:29.884Z,229.37
2023-05-15T00:10:29.882Z,225.99
2023-05-15T00:11:29.940Z,226.34
2023-05-15T00:12:29.953Z,226.80
2023-05-15T00:13:29.968Z,223.34
2023-05-15T00:14:29.965Z,223.69
2023-05-15T00:15:30.014Z,226.31
2023-05-15T00:16:30.003Z,224.20
2023-05-15T00:17:30.085Z,223.26
2023-05-15T00:18:30.075Z,224.96
2023-05-15T00:19:30.158Z,226.37
2023-05-15T00:20:30.071Z,225.02
2023-05-15T00:21:30.123Z,226.44
2023-05-15T00:22:30.114Z,223.01
2023-05-15T00:23:30.124Z,226.91
2023-05-15T00:24:30.145Z,227.65
2023-05-15T00:25:30.150Z,226.50
2023-05-15T00:26:30.147Z,227.87
2023-05-15T00:27:30.214Z,225.91
2023-05-15T00:28:30.223Z,227.68
2023-05-15T00:29:30.228Z,225.05
2023-05-15T00:30:30.241Z,225.54
2023-05-15T00:31:30.246Z,227.75
2023-05-15T00:32:30.277Z,224.19
2023-05-15T00:33:30.224Z,223.32
2023-05-15T00:34:30.266Z,226.39
2023-05-15T00:35:30.282Z,225.25
2023-05-15T00:36:30.280Z,226.77
2023-05-15T00:37:30.318Z,224.73
2023-05-15T00:38:30.316Z,226.62
2023-05-15T00:39:30.343Z,227.23
2023-05-15T00:40:30.396Z,225.42
2023-05-15T00:41:30.362Z,224.56
2023-05-15T00:42:30.371Z,226.65
2023-05-15T00:43:30.406Z,225.27
2023-05-15T00:44:30.433Z,226.75
2023-05-15T00:45:30.436Z,225.38
2023-05-15T00:46:30.460Z,221.34
2023-05-15T00:47:30.474Z,223.11
2023-05-15T00:48:30.463Z,223.44
2023-05-15T00:49:30.476Z,224.04
2023-05-15T00:50:30.466Z,224.73
2023-05-15T00:51:30.520Z,223.47
2023-05-15T00:52:30.558Z,228.51
2023-05-15T00:53:30.631Z,225.00
2023-05-15T00:54:30.552Z,224.19
2023-05-15T00:55:30.617Z,220.37
2023-05-15T00:56:30.654Z,227.58
2023-05-15T00:57:30.654Z,227.38
2023-05-15T00:58:30.686Z,223.04
2023-05-15T00:59:30.691Z,220.77
2023-05-15T01:00:30.693Z,224.22
2023-05-15T01:01:30.767Z,223.71
2023-05-15T01:02:30.826Z,225.45
2023-05-15T01:03:30.817Z,223.66
2023-05-15T01:04:30.782Z,224.93
2023-05-15T01:05:30.783Z,223.42
2023-05-15T01:06:30.843Z,224.64
2023-05-15T01:07:30.909Z,226.36
2023-05-15T01:08:30.854Z,226.35
2023-05-15T01:09:30.917Z,228.48
2023-05-15T01:10:30.906Z,224.79
2023-05-15T01:11:30.933Z,226.56
2023-05-15T01:12:30.982Z,225.94
2023-05-15T01:13:30.956Z,224.40
2023-05-15T01:14:30.957Z,225.64
2023-05-15T01:15:30.970Z,225.31
2023-05-15T01:16:30.994Z,224.03
2023-05-15T01:17:31.045Z,225.80
2023-05-15T01:18:31.055Z,227.24
2023-05-15T01:19:31.166Z,224.85
2023-05-15T01:20:31.039Z,223.83
2023-05-15T01:21:31.070Z,227.91
2023-05-15T01:22:31.080Z,224.70
2023-05-15T01:23:31.140Z,225.98
2023-05-15T01:24:31.116Z,229.86
2023-05-15T01:25:31.171Z,227.93
2023-05-15T01:26:31.178Z,225.13
2023-05-15T01:27:31.189Z,224.75
2023-05-15T01:28:31.192Z,227.67
2023-05-15T01:29:31.241Z,227.83
2023-05-15T01:30:31.196Z,225.06
2023-05-15T01:31:31.231Z,225.30
2023-05-15T01:32:31.315Z,226.38
2023-05-15T01:33:31.279Z,223.66
2023-05-15T01:34:31.302Z,224.78
2023-05-15T01:35:31.319Z,226.26
2023-05-15T01:36:31.420Z,226.74
2023-05-15T01:37:31.327Z,226.16
2023-05-15T01:38:31.369Z,224.55
2023-05-15T01:39:31.358Z,227.90
2023-05-15T01:40:31.361Z,227.01
2023-05-15T01:41:31.461Z,224.72
2023-05-15T01:42:31.453Z,225.58
2023-05-15T01:43:31.509Z,226.71
2023-05-15T01:44:31.473Z,225.09
2023-05-15T01:45:31.476Z,225.41
2023-05-15T01:46:31.616Z,224.42
2023-05-15T01:47:31.522Z,226.51
2023-05-15T01:48:31.536Z,225.35
2023-05-15T01:49:31.548Z,227.90
2023-05-15T01:50:31.521Z,227.34
2023-05-15T01:51:31.553Z,226.22
2023-05-15T01:52:31.590Z,226.28
2023-05-15T01:53:31.585Z,226.73
2023-05-15T01:54:31.599Z,222.92
2023-05-15T01:55:31.715Z,226.23
2023-05-15T01:56:31.647Z,225.39
2023-05-15T01:57:31.658Z,228.54
2023-05-15T01:58:31.663Z,224.44
2023-05-15T01:59:31.681Z,226.21
2023-05-15T02:00:31.719Z,227.99
2023-05-15T02:01:31.743Z,223.63
2023-05-15T02:02:31.849Z,224.60
2023-05-15T02:03:31.927Z,226.18
2023-05-15T02:04:31.806Z,225.92
2023-05-15T02:05:31.808Z,228.08
2023-05-15T02:06:31.828Z,224.31
2023-05-15T02:07:31.818Z,224.12
2023-05-15T02:08:31.848Z,223.93
2023-05-15T02:09:31.876Z,230.23
2023-05-15T02:10:31.873Z,229.08
2023-05-15T02:11:31.898Z,228.64
2023-05-15T02:12:31.906Z,226.73
2023-05-15T02:13:31.945Z,224.36
2023-05-15T02:14:31.936Z,229.29
2023-05-15T02:15:32.043Z,224.07
2023-05-15T02:16:32.071Z,224.39
2023-05-15T02:17:32.017Z,228.49
2023-05-15T02:18:32.063Z,228.03
2023-05-15T02:19:32.028Z,227.41
2023-05-15T02:20:32.075Z,228.31
2023-05-15T02:21:32.157Z,227.27
2023-05-15T02:22:32.123Z,227.03
2023-05-15T02:23:32.134Z,226.46
2023-05-15T02:24:32.137Z,228.01
2023-05-15T02:25:32.160Z,227.23
2023-05-15T02:26:32.209Z,226.25
2023-05-15T02:27:32.206Z,226.03
2023-05-15T02:28:32.236Z,229.78
2023-05-15T02:29:32.276Z,227.69
2023-05-15T02:30:32.311Z,229.55
2023-05-15T02:31:32.325Z,231.10
2023-05-15T02:32:32.329Z,226.47
2023-05-15T02:33:32.326Z,227.75
2023-05-15T02:34:32.362Z,227.22
2023-05-15T02:35:32.434Z,226.84
2023-05-15T02:36:32.383Z,225.93
2023-05-15T02:37:32.434Z,229.45
2023-05-15T02:38:32.404Z,228.70
2023-05-15T02:39:32.446Z,225.46
2023-05-15T02:40:32.484Z,229.85
2023-05-15T02:41:32.489Z,226.83
2023-05-15T02:42:32.498Z,228.16
2023-05-15T02:43:32.556Z,228.08
2023-05-15T02:44:32.534Z,228.48
2023-05-15T02:45:32.637Z,226.47
2023-05-15T02:46:32.605Z,225.94
2023-05-15T02:47:32.619Z,228.92
2023-05-15T02:48:32.621Z,229.61
2023-05-15T02:49:32.692Z,228.43
2023-05-15T02:50:32.672Z,227.67
2023-05-15T02:51:32.665Z,226.55
2023-05-15T02:52:32.738Z,227.85
2023-05-15T02:53:32.741Z,226.09
2023-05-15T02:54:32.825Z,227.97
2023-05-15T02:55:32.797Z,227.84
2023-05-15T02:56:32.819Z,228.27
2023-05-15T02:57:32.878Z,227.72
2023-05-15T02:58:32.898Z,228.39
2023-05-15T02:59:33.007Z,226.09
2023-05-15T03:00:32.974Z,226.14
2023-05-15T03:01:32.989Z,229.41
2023-05-15T03:02:33.023Z,228.77
2023-05-15T03:03:33.000Z,226.35
2023-05-15T03:04:33.079Z,225.85
2023-05-15T03:05:33.053Z,229.29
2023-05-15T03:06:33.099Z,227.93
2023-05-15T03:07:33.129Z,225.83
2023-05-15T03:08:33.084Z,229.38
2023-05-15T03:09:33.111Z,226.60
2023-05-15T03:10:33.167Z,227.83
2023-05-15T03:11:33.178Z,228.88
2023-05-15T03:12:33.191Z,229.95
2023-05-15T03:13:33.199Z,226.75
2023-05-15T03:14:33.222Z,227.02
2023-05-15T03:15:33.312Z,225.32
2023-05-15T03:16:33.364Z,228.75
2023-05-15T03:17:33.323Z,227.88
2023-05-15T03:18:33.352Z,229.44
2023-05-15T03:19:33.411Z,228.61
2023-05-15T03:20:33.375Z,229.43
2023-05-15T03:21:33.485Z,229.42
2023-05-15T03:22:33.421Z,225.57
2023-05-15T03:23:34.598Z,227.01
2023-05-15T03:24:33.474Z,231.68
2023-05-15T03:25:33.548Z,228.32
2023-05-15T03:26:33.537Z,229.54
2023-05-15T03:27:33.602Z,230.22
2023-05-15T03:28:33.619Z,231.62
2023-05-15T03:29:33.624Z,228.52
2023-05-15T03:30:33.629Z,231.77
2023-05-15T03:31:33.686Z,231.54
2023-05-15T03:32:33.707Z,229.17
2023-05-15T03:33:33.713Z,226.51
2023-05-15T03:34:33.709Z,230.04
2023-05-15T03:35:33.748Z,230.19
2023-05-15T03:36:33.753Z,226.28
2023-05-15T03:37:33.804Z,227.14
2023-05-15T03:38:33.849Z,230.33
2023-05-15T03:39:33.890Z,228.42
2023-05-15T03:40:33.902Z,229.10
2023-05-15T03:41:33.910Z,228.87
2023-05-15T03:42:33.947Z,228.55
2023-05-15T03:43:33.938Z,227.21
2023-05-15T03:44:34.000Z,226.45
2023-05-15T03:45:34.002Z,227.15
2023-05-15T03:46:34.145Z,228.40
2023-05-15T03:47:34.169Z,227.82
2023-05-15T03:48:34.076Z,228.75
2023-05-15T03:49:34.123Z,230.37
2023-05-15T03:50:34.132Z,228.41
2023-05-15T03:51:34.170Z,226.72
2023-05-15T03:52:34.176Z,227.54
2023-05-15T03:53:34.253Z,226.44
2023-05-15T03:54:34.251Z,226.21
2023-05-15T03:55:34.314Z,229.88
2023-05-15T03:56:34.317Z,227.93
2023-05-15T03:57:34.327Z,230.53
2023-05-15T03:58:34.367Z,225.64
2023-05-15T03:59:34.370Z,227.10
2023-05-15T04:00:34.407Z,228.97
2023-05-15T04:01:39.304Z,226.95
2023-05-15T04:02:35.544Z,227.15
2023-05-15T04:03:34.451Z,227.48
2023-05-15T04:04:34.427Z,229.13
2023-05-15T04:05:34.492Z,228.73
2023-05-15T04:06:34.385Z,228.67
2023-05-15T04:07:34.486Z,228.55
2023-05-15T04:08:34.397Z,231.41
2023-05-15T04:09:34.355Z,230.08
2023-05-15T04:10:34.362Z,228.48
2023-05-15T04:11:34.388Z,227.23
2023-05-15T04:12:34.396Z,230.68
2023-05-15T04:13:34.329Z,228.92
2023-05-15T04:14:34.337Z,228.95
2023-05-15T04:15:34.338Z,228.60
2023-05-15T04:16:34.345Z,227.97
2023-05-15T04:17:34.318Z,228.34
2023-05-15T04:18:34.377Z,226.80
2023-05-15T04:19:34.374Z,230.40
2023-05-15T04:20:34.342Z,229.06
2023-05-15T04:21:34.404Z,226.30
2023-05-15T04:22:34.413Z,226.49
2023-05-15T04:23:34.430Z,229.70
2023-05-15T04:24:34.499Z,224.41
2023-05-15T04:25:34.512Z,228.50
2023-05-15T04:26:34.526Z,224.69
2023-05-15T04:27:34.597Z,228.86
2023-05-15T04:28:34.628Z,225.42
2023-05-15T04:29:34.656Z,227.60
2023-05-15T04:30:34.647Z,226.44
2023-05-15T04:31:34.723Z,221.75
2023-05-15T04:32:34.766Z,226.83
2023-05-15T04:33:34.781Z,222.11
2023-05-15T04:34:34.809Z,221.33
2023-05-15T04:35:34.813Z,222.48
2023-05-15T04:36:34.876Z,223.60
2023-05-15T04:37:34.915Z,224.03
2023-05-15T04:38:34.926Z,221.17
2023-05-15T04:39:34.981Z,220.69
2023-05-15T04:40:34.993Z,224.10
2023-05-15T04:41:34.982Z,222.54
2023-05-15T04:42:35.027Z,217.95
2023-05-15T04:43:35.051Z,221.67
2023-05-15T04:44:35.113Z,220.58
2023-05-15T04:45:35.160Z,219.22
2023-05-15T04:46:35.232Z,221.14
2023-05-15T04:47:35.235Z,221.34
2023-05-15T04:48:35.261Z,218.52
2023-05-15T04:49:35.264Z,221.07
2023-05-15T04:50:35.264Z,217.16
2023-05-15T04:51:35.325Z,220.15
2023-05-15T04:53:51.160Z,25.00
2023-05-15T04:54:51.094Z,25.00
2023-05-15T04:55:51.116Z,25.00
2023-05-15T04:56:51.104Z,25.00
2023-05-15T04:57:51.063Z,25.00
2023-05-15T04:58:51.076Z,26.67
2023-05-15T04:59:51.058Z,25.00
2023-05-15T05:00:51.102Z,28.84
2023-05-15T05:01:51.076Z,25.00
2023-05-15T05:02:51.096Z,26.74
2023-05-15T05:03:51.126Z,28.14
2023-05-15T05:04:51.049Z,30.35
2023-05-15T05:05:51.029Z,29.82
2023-05-15T05:06:51.003Z,25.60
2023-05-15T05:07:51.046Z,23.72
2023-05-15T05:08:51.001Z,25.00
2023-05-15T05:09:51.111Z,25.06
2023-05-15T05:10:50.996Z,25.00
2023-05-15T05:11:50.975Z,27.87
2023-05-15T05:12:50.979Z,25.39
2023-05-15T05:13:50.978Z,27.91
2023-05-15T05:14:50.993Z,25.79
2023-05-15T05:15:50.991Z,25.52
2023-05-15T05:16:50.942Z,25.00
2023-05-15T05:17:50.985Z,29.63
2023-05-15T05:18:51.001Z,28.56
2023-05-15T05:19:50.949Z,26.65
2023-05-15T05:20:50.985Z,25.91
2023-05-15T05:21:50.903Z,26.97
2023-05-15T05:22:50.920Z,28.69
2023-05-15T05:23:50.883Z,27.61
2023-05-15T05:24:50.920Z,31.65
2023-05-15T05:25:50.898Z,31.49
2023-05-15T05:26:50.860Z,29.21
2023-05-15T05:27:50.906Z,26.24
2023-05-15T05:28:50.849Z,26.27
2023-05-15T05:29:50.846Z,27.03
2023-05-15T05:30:50.849Z,25.04
2023-05-15T05:31:50.939Z,28.10
2023-05-15T05:32:50.874Z,25.00
2023-05-15T05:33:50.856Z,26.66
2023-05-15T05:34:50.820Z,25.95
2023-05-15T05:35:50.865Z,29.44
2023-05-15T05:36:50.798Z,26.51
2023-05-15T05:37:50.802Z,31.87
2023-05-15T05:38:50.845Z,32.43
2023-05-15T05:39:50.794Z,34.10
2023-05-15T05:40:51.016Z,36.81
2023-05-15T05:41:50.763Z,44.30
2023-05-15T05:42:50.801Z,41.22
2023-05-15T05:43:50.785Z,44.65
2023-05-15T05:44:50.778Z,50.31
2023-05-15T05:45:50.750Z,58.85
2023-05-15T05:46:50.751Z,57.45
2023-05-15T05:47:50.787Z,63.13
2023-05-15T05:48:50.751Z,67.52
2023-05-15T05:49:50.771Z,70.78
2023-05-15T05:50:50.788Z,73.20
2023-05-15T05:51:50.711Z,79.45
2023-05-15T05:52:50.730Z,84.05
2023-05-15T05:53:50.692Z,83.22
2023-05-15T05:54:50.678Z,89.33
2023-05-15T05:55:50.690Z,88.91
2023-05-15T05:56:50.766Z,90.30
2023-05-15T05:57:50.649Z,93.75
2023-05-15T05:58:50.768Z,95.52
2023-05-15T05:59:50.662Z,100.21
2023-05-15T06:00:50.644Z,98.71
2023-05-15T06:01:50.664Z,90.26
2023-05-15T06:02:50.732Z,90.28
2023-05-15T06:03:50.645Z,86.02
2023-05-15T06:04:50.616Z,78.96
2023-05-15T06:05:50.665Z,76.81
2023-05-15T06:06:50.718Z,69.43
2023-05-15T06:07:50.679Z,66.25
2023-05-15T06:08:50.629Z,62.73
2023-05-15T06:09:50.588Z,59.49
2023-05-15T06:10:50.680Z,51.22
2023-05-15T06:11:50.612Z,49.64
2023-05-15T06:12:50.553Z,48.73
2023-05-15T06:13:50.564Z,47.68
2023-05-15T06:14:50.584Z,45.30
2023-05-15T06:15:50.641Z,39.15
2023-05-15T06:16:50.608Z,32.09
2023-05-15T06:17:50.856Z,29.36
2023-05-15T06:18:50.515Z,27.22
2023-05-15T06:19:50.566Z,25.71
2023-05-15T06:20:50.509Z,27.84
2023-05-15T06:21:50.525Z,28.50
2023-05-15T06:22:50.529Z,25.06
2023-05-15T06:23:50.586Z,25.56
2023-05-15T06:24:52.336Z,27.65
2023-05-15T06:25:50.477Z,28.76
2023-05-15T06:26:51.805Z,25.18
2023-05-15T06:27:50.453Z,25.83
2023-05-15T06:28:52.860Z,25.00
2023-05-15T06:29:50.448Z,25.63
2023-05-15T06:30:50.480Z,30.30
2023-05-15T06:31:50.514Z,34.00
2023-05-15T06:32:50.466Z,29.70
2023-05-15T06:33:50.441Z,24.42
2023-05-15T06:34:50.464Z,27.79
2023-05-15T06:35:50.505Z,25.99
2023-05-15T06:36:50.454Z,28.10
2023-05-15T06:37:50.498Z,30.93
2023-05-15T06:38:50.477Z,31.48
2023-05-15T06:39:50.483Z,32.49
2023-05-15T06:40:50.567Z,36.07
2023-05-15T06:41:50.498Z,35.33
2023-05-15T06:42:50.498Z,35.29
2023-05-15T06:43:50.508Z,43.48
2023-05-15T06:44:50.522Z,45.54
2023-05-15T06:45:50.560Z,44.41
2023-05-15T06:46:50.554Z,44.88
2023-05-15T06:47:50.602Z,39.35
2023-05-15T06:48:50.556Z,38.16
2023-05-15T06:49:50.560Z,35.99
2023-05-15T06:50:50.509Z,26.02
2023-05-15T06:51:50.582Z,30.44
2023-05-15T06:52:50.518Z,27.15
2023-05-15T06:53:50.513Z,33.01
2023-05-15T06:54:50.537Z,31.51
2023-05-15T06:55:50.551Z,33.01
2023-05-15T06:56:50.559Z,27.70
2023-05-15T06:57:50.567Z,28.25
2023-05-15T06:58:50.581Z,25.68
2023-05-15T06:59:50.597Z,25.00
2023-05-15T07:00:50.512Z,25.00
2023-05-15T07:01:50.629Z,25.73
2023-05-15T07:02:50.650Z,30.70
2023-05-15T07:03:50.558Z,29.13
2023-05-15T07:04:50.735Z,27.38
2023-05-15T07:05:50.523Z,25.04
2023-05-15T07:06:50.566Z,28.18
2023-05-15T07:07:50.576Z,28.58
2023-05-15T07:08:50.583Z,29.70
2023-05-15T07:09:50.584Z,36.44
2023-05-15T07:10:50.665Z,39.43
2023-05-15T07:11:50.657Z,34.41
2023-05-15T07:12:50.652Z,31.30
2023-05-15T07:13:50.837Z,35.89
2023-05-15T07:14:50.812Z,37.52
2023-05-15T07:15:50.741Z,40.58
2023-05-15T07:16:50.842Z,41.87
2023-05-15T07:17:50.955Z,47.23
2023-05-15T07:18:50.982Z,43.06
2023-05-15T07:19:50.852Z,47.17
2023-05-15T07:20:50.887Z,46.57
2023-05-15T07:21:50.970Z,46.85
2023-05-15T07:22:56.386Z,54.92
2023-05-15T07:23:52.126Z,55.09
2023-05-15T07:24:50.952Z,55.43
2023-05-15T07:25:50.953Z,58.43
2023-05-15T07:27:51.934Z,55.65
2023-05-15T07:28:50.917Z,56.17
2023-05-15T07:29:50.991Z,57.12
2023-05-15T07:30:51.027Z,63.19
2023-05-15T07:31:51.023Z,57.43
2023-05-15T07:32:51.937Z,25.00
2023-05-15T07:33:50.915Z,22.92
2023-05-15T07:34:50.910Z,29.24
2023-05-15T07:35:50.872Z,34.65
2023-05-15T07:36:50.879Z,39.72
2023-05-15T07:37:50.910Z,48.44
2023-05-15T07:38:50.942Z,53.02
2023-05-15T07:39:51.062Z,59.31
2023-05-15T07:40:51.010Z,63.93
2023-05-15T07:41:51.034Z,65.45
2023-05-15T07:42:51.145Z,69.76
2023-05-15T07:43:51.044Z,83.41
2023-05-15T07:44:51.077Z,87.72
2023-05-15T07:45:51.207Z,88.89
2023-05-15T07:46:51.105Z,88.03
2023-05-15T07:47:51.185Z,88.50
2023-05-15T07:48:51.200Z,98.88
2023-05-15T07:49:51.178Z,101.23
2023-05-15T07:50:51.218Z,100.60
2023-05-15T07:51:51.230Z,102.20
2023-05-15T07:52:51.234Z,99.68
2023-05-15T07:53:51.300Z,107.80
2023-05-15T07:54:51.315Z,108.01
2023-05-15T07:55:51.420Z,111.59
2023-05-15T07:56:51.424Z,111.22
2023-05-15T07:57:54.107Z,114.68
2023-05-15T07:58:51.497Z,116.95
2023-05-15T07:59:51.485Z,118.23
2023-05-15T08:00:51.515Z,123.41
2023-05-15T08:01:51.456Z,121.64
2023-05-15T08:02:51.637Z,124.62
2023-05-15T08:03:51.690Z,127.39
2023-05-15T08:04:51.472Z,128.10
2023-05-15T08:05:51.500Z,130.71
2023-05-15T08:06:51.425Z,132.75
2023-05-15T08:07:51.432Z,130.54
2023-05-15T08:08:51.428Z,139.14
2023-05-15T08:09:51.398Z,139.31
2023-05-15T08:10:51.419Z,141.22
2023-05-15T08:11:51.436Z,148.80
2023-05-15T08:12:51.381Z,151.56
2023-05-15T08:13:51.430Z,153.62
2023-05-15T08:14:51.372Z,153.96
2023-05-15T08:15:51.407Z,156.84
2023-05-15T08:16:51.356Z,161.25
2023-05-15T08:17:51.369Z,163.67
2023-05-15T08:18:51.445Z,166.12
2023-05-15T08:19:51.418Z,169.26
2023-05-15T08:20:51.328Z,168.22
2023-05-15T08:21:51.353Z,170.40
2023-05-15T08:22:51.306Z,173.89
2023-05-15T08:23:51.367Z,175.88
2023-05-15T08:24:51.301Z,175.94
2023-05-15T08:25:51.320Z,179.40
2023-05-15T08:26:51.310Z,177.55
2023-05-15T08:27:51.271Z,184.94
2023-05-15T08:28:51.279Z,191.29
2023-05-15T08:29:51.557Z,190.70
2023-05-15T08:30:51.248Z,180.67
2023-05-15T08:31:51.328Z,148.97
2023-05-15T08:32:51.373Z,114.00
2023-05-15T08:33:51.257Z,92.25
2023-05-15T08:34:51.266Z,68.24
2023-05-15T08:35:51.288Z,53.85
2023-05-15T08:36:51.640Z,45.14
2023-05-15T08:37:51.249Z,34.73
2023-05-15T08:38:51.180Z,24.24
2023-05-15T08:39:51.256Z,26.11
2023-05-15T08:40:51.154Z,26.98
2023-05-15T08:41:51.208Z,27.52
2023-05-15T08:42:51.940Z,30.79
2023-05-15T08:43:51.165Z,47.05
2023-05-15T08:44:51.256Z,47.69
2023-05-15T08:45:51.148Z,61.12
2023-05-15T08:46:51.183Z,65.36
2023-05-15T08:47:51.293Z,66.32
2023-05-15T08:48:51.397Z,78.43
2023-05-15T08:49:51.168Z,91.55
2023-05-15T08:50:51.133Z,97.69
2023-05-15T08:51:51.117Z,102.64
2023-05-15T08:52:51.205Z,110.94
2023-05-15T08:53:51.091Z,106.65
2023-05-15T08:54:51.119Z,117.70
2023-05-15T08:55:51.229Z,129.67
2023-05-15T08:56:51.111Z,132.44
2023-05-15T08:57:51.134Z,137.35
2023-05-15T08:58:51.245Z,150.43
2023-05-15T08:59:51.263Z,156.79
2023-05-15T09:00:51.375Z,163.89
2023-05-15T09:01:51.386Z,169.03
2023-05-15T09:02:51.515Z,169.76
2023-05-15T09:03:51.493Z,170.09
2023-05-15T09:04:51.530Z,173.78
2023-05-15T09:05:51.525Z,180.35
2023-05-15T09:06:51.583Z,183.59
2023-05-15T09:07:51.588Z,190.82
2023-05-15T09:08:51.648Z,191.28
2023-05-15T09:09:51.965Z,201.32
2023-05-15T09:10:51.718Z,207.57
2023-05-15T09:11:51.933Z,213.39
2023-05-15T09:12:51.749Z,219.90
2023-05-15T09:13:51.755Z,222.35
2023-05-15T09:14:51.752Z,225.42
2023-05-15T09:15:51.796Z,229.23
2023-05-15T09:16:51.820Z,234.74
2023-05-15T09:17:51.869Z,240.36
2023-05-15T09:18:51.821Z,243.76
2023-05-15T09:19:51.756Z,248.22
2023-05-15T09:20:52.358Z,250.00
2023-05-15T09:21:51.834Z,250.00
2023-05-15T09:22:51.752Z,249.40
2023-05-15T09:23:51.814Z,246.12
2023-05-15T09:24:51.769Z,248.97
2023-05-15T09:25:51.837Z,248.03
2023-05-15T09:26:51.773Z,246.59
2023-05-15T09:27:51.783Z,249.70
2023-05-15T09:28:51.785Z,244.93
2023-05-15T09:29:51.904Z,249.59
2023-05-15T09:30:51.907Z,248.85
2023-05-15T09:31:52.040Z,249.00
2023-05-15T09:32:52.242Z,248.95
2023-05-15T09:33:52.036Z,250.33
2023-05-15T09:34:52.090Z,250.00
2023-05-15T09:35:52.244Z,231.27
2023-05-15T09:36:52.248Z,213.12
2023-05-15T09:37:52.167Z,197.01
2023-05-15T09:38:52.194Z,193.68
2023-05-15T09:39:52.185Z,201.26
2023-05-15T09:40:52.180Z,213.13
2023-05-15T09:41:52.236Z,210.16
2023-05-15T09:42:52.207Z,206.49
2023-05-15T09:43:52.381Z,208.82
2023-05-15T09:44:52.269Z,210.20
2023-05-15T09:45:52.481Z,209.99
2023-05-15T09:46:52.310Z,211.28
2023-05-15T09:47:52.301Z,211.31
2023-05-15T09:48:52.330Z,213.84
2023-05-15T09:49:52.351Z,211.69
2023-05-15T09:50:52.303Z,215.38
2023-05-15T09:51:52.350Z,214.48
2023-05-15T09:52:52.328Z,217.33
2023-05-15T09:53:52.336Z,219.74
2023-05-15T09:54:52.348Z,200.41
2023-05-15T09:55:52.322Z,180.72
2023-05-15T09:56:52.410Z,178.81
2023-05-15T09:57:52.459Z,172.30
2023-05-15T09:58:52.404Z,167.46
2023-05-15T09:59:52.491Z,169.93
2023-05-15T10:00:52.473Z,171.23
2023-05-15T10:01:52.509Z,169.01
2023-05-15T10:02:52.710Z,166.83
2023-05-15T10:03:52.546Z,165.25
2023-05-15T10:04:52.716Z,164.26
2023-05-15T10:05:52.688Z,162.16
2023-05-15T10:06:52.557Z,164.22
2023-05-15T10:07:52.565Z,163.46
2023-05-15T10:08:52.559Z,166.31
2023-05-15T10:09:52.568Z,165.71
2023-05-15T10:10:52.559Z,168.10
2023-05-15T10:11:52.554Z,168.05
2023-05-15T10:12:52.592Z,171.92
2023-05-15T10:13:52.706Z,173.48
2023-05-15T10:14:52.693Z,171.66
2023-05-15T10:15:52.821Z,174.46
2023-05-15T10:16:52.794Z,178.32
2023-05-15T10:17:52.923Z,178.96
2023-05-15T10:18:52.865Z,176.52
2023-05-15T10:19:58.345Z,177.99
2023-05-15T10:20:53.984Z,178.21
2023-05-15T10:21:52.903Z,178.49
2023-05-15T10:22:52.933Z,179.49
2023-05-15T10:23:52.950Z,178.10
2023-05-15T10:24:52.894Z,180.85
2023-05-15T10:25:52.930Z,168.24
2023-05-15T10:26:52.964Z,153.53
2023-05-15T10:27:52.903Z,136.50
2023-05-15T10:28:52.885Z,138.84
2023-05-15T10:29:52.885Z,132.07
2023-05-15T10:30:53.440Z,119.68
2023-05-15T10:31:52.973Z,104.83
2023-05-15T10:32:52.916Z,114.30
2023-05-15T10:33:52.927Z,123.73
2023-05-15T10:34:53.078Z,130.58
2023-05-15T10:35:52.905Z,132.73
2023-05-15T10:36:52.956Z,133.68
2023-05-15T10:37:52.938Z,132.08
2023-05-15T10:38:52.944Z,132.98
2023-05-15T10:39:52.990Z,133.26
2023-05-15T10:40:59.838Z,137.11
2023-05-15T10:41:53.934Z,137.22
2023-05-15T10:42:52.918Z,137.73
2023-05-15T10:43:52.918Z,138.68
2023-05-15T10:44:52.914Z,137.78
2023-05-15T10:45:52.927Z,144.35
2023-05-15T10:46:52.950Z,150.46
2023-05-15T10:47:53.050Z,150.54
2023-05-15T10:48:52.877Z,154.24
2023-05-15T10:49:52.953Z,154.13
2023-05-15T10:50:52.867Z,159.69
2023-05-15T10:51:52.918Z,164.06
2023-05-15T10:52:53.000Z,164.37
2023-05-15T10:53:53.054Z,167.58
2023-05-15T10:54:53.198Z,169.80
2023-05-15T10:55:53.178Z,172.13
2023-05-15T10:56:53.203Z,177.50
2023-05-15T10:57:53.265Z,180.79
2023-05-15T10:58:53.293Z,181.56
2023-05-15T10:59:53.390Z,183.21
2023-05-15T11:00:53.419Z,188.01
2023-05-15T11:01:53.435Z,189.90
2023-05-15T11:02:53.610Z,190.51
2023-05-15T11:03:55.241Z,194.86
2023-05-15T11:04:53.575Z,197.53
2023-05-15T11:05:53.627Z,199.62
2023-05-15T11:06:53.681Z,202.24
2023-05-15T11:07:53.883Z,204.12
2023-05-15T11:08:53.847Z,209.11
2023-05-15T11:09:53.823Z,210.59
2023-05-15T11:10:53.894Z,214.51
2023-05-15T11:11:53.922Z,224.03
2023-05-15T11:12:54.004Z,252.03
2023-05-15T11:13:53.980Z,250.00
2023-05-15T11:14:54.057Z,248.94
2023-05-15T11:15:54.147Z,250.00
2023-05-15T11:16:54.201Z,249.25
2023-05-15T11:17:54.204Z,247.97
2023-05-15T11:18:54.301Z,248.42
2023-05-15T11:19:54.248Z,248.63
2023-05-15T11:20:54.277Z,247.93
2023-05-15T11:21:54.350Z,250.00
2023-05-15T11:22:54.352Z,248.77
2023-05-15T11:23:54.416Z,247.21
2023-05-15T11:24:54.504Z,246.53
2023-05-15T11:25:54.461Z,241.45
2023-05-15T11:26:54.531Z,240.74
2023-05-15T11:27:54.578Z,239.68
2023-05-15T11:28:54.616Z,238.66
2023-05-15T11:29:54.697Z,238.79
2023-05-15T11:30:54.774Z,236.11
2023-05-15T11:31:54.813Z,233.98
2023-05-15T11:32:54.987Z,232.14
2023-05-15T11:33:54.989Z,230.78
2023-05-15T11:34:54.997Z,228.93
2023-05-15T11:35:55.062Z,228.67
2023-05-15T11:36:55.122Z,226.70
2023-05-15T11:37:55.162Z,224.92
2023-05-15T11:38:55.294Z,224.20
2023-05-15T11:39:55.297Z,222.36
2023-05-15T11:40:55.415Z,217.37
2023-05-15T11:41:55.415Z,216.40
2023-05-15T11:42:55.507Z,215.35
2023-05-15T11:43:55.529Z,214.14
2023-05-15T11:44:55.587Z,213.07
2023-05-15T11:45:55.657Z,210.83
2023-05-15T11:46:55.825Z,208.18
2023-05-15T11:47:55.855Z,204.47
2023-05-15T11:48:56.246Z,205.12
2023-05-15T11:49:55.849Z,203.01
2023-05-15T11:50:55.888Z,200.89
2023-05-15T11:51:55.955Z,199.96
2023-05-15T11:52:56.007Z,198.39
2023-05-15T11:53:56.049Z,198.35
2023-05-15T11:54:56.093Z,194.94
2023-05-15T11:55:56.137Z,193.78
2023-05-15T11:56:56.138Z,192.77
2023-05-15T11:57:56.152Z,192.12
2023-05-15T11:58:56.203Z,190.71
2023-05-15T11:59:56.231Z,190.17
2023-05-15T12:00:56.314Z,189.93
2023-05-15T12:01:56.228Z,187.05
2023-05-15T12:02:56.302Z,187.31
2023-05-15T12:03:56.546Z,183.03
2023-05-15T12:04:56.336Z,183.29
2023-05-15T12:05:59.516Z,184.08
2023-05-15T12:06:56.241Z,184.09
2023-05-15T12:07:56.252Z,177.61
2023-05-15T12:08:56.264Z,168.99
2023-05-15T12:09:56.259Z,140.89
2023-05-15T12:10:56.247Z,116.25
2023-05-15T12:11:56.259Z,107.10
2023-05-15T12:12:56.323Z,98.47
2023-05-15T12:13:56.258Z,94.09
2023-05-15T12:14:56.274Z,75.16
2023-05-15T12:15:56.300Z,71.98
2023-05-15T12:16:56.253Z,62.80
2023-05-15T12:17:56.243Z,56.60
2023-05-15T12:18:56.277Z,38.69
2023-05-15T12:19:56.214Z,33.55
2023-05-15T12:20:56.233Z,27.11
2023-05-15T12:21:56.140Z,25.82
2023-05-15T12:22:56.158Z,24.74
2023-05-15T12:24:56.132Z,26.24
2023-05-15T12:25:56.294Z,29.69
2023-05-15T12:26:57.620Z,26.45
2023-05-15T12:27:56.126Z,24.47
2023-05-15T12:28:56.122Z,27.18
2023-05-15T12:29:56.129Z,27.07
2023-05-15T12:30:56.203Z,27.60
2023-05-15T12:31:56.113Z,32.04
2023-05-15T12:32:56.148Z,28.22
2023-05-15T12:33:56.152Z,29.67
2023-05-15T12:34:56.614Z,30.21
2023-05-15T12:36:00.890Z,29.51
2023-05-15T12:36:58.028Z,29.58
2023-05-15T12:37:56.164Z,30.21
2023-05-15T12:38:56.191Z,33.78